Time;durP1;ratioP1;P1;durP2;ratioP2;P2;SDS_P1;SDS_P2;PMS_P1;PMS_P2;Temp;Humidity;BMP_temperature;BMP_pressure;BME280_temperature;BME280_humidity;BME280_pressure;Samples;Min_cycle;Max_cycle;Signal;HPM_P1;HPM_P2
2023/12/04 00:01:48;;;;;;;15.00;7.13;;;;;;;-0.61;100.00;101232.63;5004105;28;20067;-85
2023/12/04 00:04:13;;;;;;;14.43;6.70;;;;;;;-0.64;100.00;101222.31;5008785;28;20082;-85
2023/12/04 00:06:40;;;;;;;16.43;7.43;;;;;;;-0.64;100.00;101222.31;5008502;28;20053;-85
2023/12/04 00:09:05;;;;;;;14.17;6.93;;;;;;;-0.65;100.00;101225.69;5014452;28;20018;-85
2023/12/04 00:11:32;;;;;;;15.47;6.93;;;;;;;-0.65;100.00;101220.56;4990109;28;20096;-85
2023/12/04 00:13:58;;;;;;;15.10;6.67;;;;;;;-0.62;100.00;101213.00;5009086;28;20018;-86
2023/12/04 00:16:23;;;;;;;13.27;6.13;;;;;;;-0.61;100.00;101209.63;5007671;28;20478;-87
2023/12/04 00:18:49;;;;;;;15.07;6.77;;;;;;;-0.61;100.00;101227.50;5003151;28;20157;-85
2023/12/04 00:21:14;;;;;;;16.57;7.40;;;;;;;-0.61;100.00;101219.84;4988047;28;20022;-85
2023/12/04 00:23:39;;;;;;;15.67;6.73;;;;;;;-0.59;100.00;101218.19;5005047;28;20072;-85
2023/12/04 00:26:05;;;;;;;14.87;6.30;;;;;;;-0.55;100.00;101214.03;5009067;28;20026;-86
2023/12/04 00:28:31;;;;;;;14.13;6.43;;;;;;;-0.53;100.00;101212.38;4988240;28;20022;-84
2023/12/04 00:30:56;;;;;;;14.47;6.30;;;;;;;-0.54;100.00;101213.19;4977952;28;20037;-85
2023/12/04 00:33:22;;;;;;;16.17;6.90;;;;;;;-0.52;100.00;101211.53;4998808;28;20387;-86
2023/12/04 00:35:47;;;;;;;13.87;6.17;;;;;;;-0.53;100.00;101205.59;5008471;28;20092;-85
2023/12/04 00:38:12;;;;;;;14.00;6.17;;;;;;;-0.50;100.00;101207.34;5005445;28;20042;-86
2023/12/04 00:40:38;;;;;;;15.03;6.63;;;;;;;-0.49;100.00;101194.59;5005131;28;20175;-86
2023/12/04 00:43:03;;;;;;;14.53;6.33;;;;;;;-0.47;100.00;101197.22;5007071;28;20029;-85
2023/12/04 00:45:29;;;;;;;13.27;6.30;;;;;;;-0.47;100.00;101190.38;5009056;28;20041;-85
2023/12/04 00:47:54;;;;;;;13.20;6.00;;;;;;;-0.42;100.00;101187.09;4979576;28;20027;-86
2023/12/04 00:50:19;;;;;;;14.60;6.63;;;;;;;-0.40;100.00;101188.84;5012586;28;20038;-85
2023/12/04 00:52:45;;;;;;;15.20;6.10;;;;;;;-0.38;100.00;101188.91;5009153;28;20026;-84
2023/12/04 00:55:11;;;;;;;14.00;5.57;;;;;;;-0.39;100.00;101182.91;5007784;28;20464;-85
2023/12/04 00:57:36;;;;;;;12.83;5.50;;;;;;;-0.38;100.00;101188.91;5012669;28;20046;-83
2023/12/04 01:00:02;;;;;;;13.43;5.80;;;;;;;-0.39;100.00;101182.06;4994116;28;20048;-84
2023/12/04 01:02:28;;;;;;;14.27;6.07;;;;;;;-0.40;100.00;101176.06;5014389;28;20044;-85
2023/12/04 01:04:53;;;;;;;15.80;6.57;;;;;;;-0.41;100.00;101168.38;5014795;28;20030;-85
2023/12/04 01:07:18;;;;;;;13.40;6.33;;;;;;;-0.40;100.00;101175.22;5008825;28;20441;-86
2023/12/04 01:09:44;;;;;;;14.00;6.07;;;;;;;-0.41;100.00;101163.25;5009529;28;20029;-87
2023/12/04 01:12:09;;;;;;;12.27;5.47;;;;;;;-0.40;100.00;101163.28;5002771;28;20108;-85
2023/12/04 01:14:38;;;;;;;12.17;5.87;;;;;;;-0.42;100.00;101159.81;5010200;28;20136;-86
2023/12/04 01:17:03;;;;;;;14.47;6.47;;;;;;;-0.42;100.00;101170.03;5006202;28;20017;-86
2023/12/04 01:19:29;;;;;;;14.67;6.17;;;;;;;-0.42;100.00;101166.63;5003147;28;20449;-86
2023/12/04 01:21:54;;;;;;;15.37;6.63;;;;;;;-0.42;100.00;101158.97;5011921;28;20028;-84
2023/12/04 01:24:19;;;;;;;14.63;6.23;;;;;;;-0.42;100.00;101158.97;5011236;28;20030;-86
2023/12/04 01:26:45;;;;;;;13.50;5.90;;;;;;;-0.40;100.00;101154.78;5007365;28;20022;-84
2023/12/04 01:29:10;;;;;;;12.70;5.97;;;;;;;-0.40;100.00;101150.50;5007938;28;20024;-86
2023/12/04 01:31:35;;;;;;;11.70;5.77;;;;;;;-0.41;100.00;101140.25;5002793;28;20034;-86
2023/12/04 01:34:01;;;;;;;11.63;5.37;;;;;;;-0.39;100.00;101138.59;5007592;28;20059;-86
2023/12/04 01:36:26;;;;;;;12.13;5.63;;;;;;;-0.38;100.00;101143.75;5005123;28;20021;-85
2023/12/04 01:38:51;;;;;;;13.73;5.97;;;;;;;-0.39;100.00;101141.16;5004761;28;20105;-86
2023/12/04 01:41:17;;;;;;;11.70;5.77;;;;;;;-0.37;100.00;101148.03;5013465;28;20096;-84
2023/12/04 01:43:42;;;;;;;12.50;5.33;;;;;;;-0.37;100.00;101137.81;4988854;28;20043;-87
2023/12/04 01:46:09;;;;;;;11.50;5.63;;;;;;;-0.35;100.00;101140.41;4986485;28;20021;-86
2023/12/04 01:48:36;;;;;;;13.17;5.63;;;;;;;-0.34;100.00;101134.44;5011548;28;20454;-85
2023/12/04 01:51:05;;;;;;;14.03;5.87;;;;;;;-0.33;100.00;101141.28;4988421;28;20108;-85
2023/12/04 01:53:32;;;;;;;13.07;6.00;;;;;;;-0.32;100.00;101140.47;5012401;28;20038;-84
2023/12/04 01:55:58;;;;;;;11.80;5.70;;;;;;;-0.33;100.00;101136.19;5010742;28;20461;-84
2023/12/04 01:58:23;;;;;;;13.27;6.07;;;;;;;-0.32;100.00;101132.78;5014744;28;20040;-84
2023/12/04 02:00:49;;;;;;;12.70;5.97;;;;;;;-0.32;100.00;101132.78;5009239;28;20052;-83
2023/12/04 02:03:14;;;;;;;11.97;5.90;;;;;;;-0.31;100.00;101127.72;5009599;28;20101;-84
2023/12/04 02:05:40;;;;;;;11.87;5.57;;;;;;;-0.30;100.00;101126.03;5014667;28;20022;-84
2023/12/04 02:08:05;;;;;;;12.87;6.17;;;;;;;-0.31;100.00;101107.28;5010260;28;20099;-83
2023/12/04 02:10:31;;;;;;;13.17;5.97;;;;;;;-0.30;100.00;101115.81;5010714;28;20519;-84
2023/12/04 02:12:57;;;;;;;12.43;6.07;;;;;;;-0.30;100.00;101108.13;4991017;28;20113;-84
2023/12/04 02:15:22;;;;;;;13.13;5.93;;;;;;;-0.31;100.00;101112.41;5010234;28;20029;-84
2023/12/04 02:17:48;;;;;;;13.77;6.00;;;;;;;-0.31;100.00;101108.97;5006489;28;20419;-83
2023/12/04 02:20:14;;;;;;;13.60;6.23;;;;;;;-0.33;100.00;101100.38;5009633;28;20030;-83
2023/12/04 02:22:39;;;;;;;13.70;5.20;;;;;;;-0.31;100.00;101096.19;5006543;28;20026;-83
2023/12/04 02:25:06;;;;;;;13.07;5.70;;;;;;;-0.30;100.00;101092.78;5000628;28;20031;-83
2023/12/04 02:27:40;;;;;;;13.33;5.80;;;;;;;-0.31;100.00;101088.50;5002776;28;20084;-83
2023/12/04 02:30:11;;;;;;;11.80;5.67;;;;;;;-0.32;100.00;101084.22;4999036;28;20026;-83
2023/12/04 02:32:42;;;;;;;13.53;5.53;;;;;;;-0.33;100.00;101079.94;4988331;28;20022;-84
2023/12/04 02:35:09;;;;;;;11.15;5.72;;;;;;;-0.33;100.00;101082.50;5009479;28;20022;-84
2023/12/04 02:37:35;;;;;;;13.83;6.10;;;;;;;-0.33;100.00;101079.94;5016776;28;20038;-83
2023/12/04 02:40:01;;;;;;;13.90;6.10;;;;;;;-0.33;100.00;101075.69;4989348;28;20030;-84
2023/12/04 02:42:26;;;;;;;11.43;5.47;;;;;;;-0.33;100.00;101062.03;5000058;28;20042;-83
2023/12/04 02:44:52;;;;;;;11.10;5.30;;;;;;;-0.32;100.00;101063.78;4989884;28;20481;-83
2023/12/04 02:47:18;;;;;;;11.37;5.33;;;;;;;-0.33;100.00;101069.72;4990236;28;20485;-83
2023/12/04 02:49:43;;;;;;;11.63;4.87;;;;;;;-0.33;100.00;101064.59;4993073;28;20049;-83
2023/12/04 02:52:09;;;;;;;12.53;5.70;;;;;;;-0.34;100.00;101057.75;4977341;28;20105;-84
2023/12/04 02:54:34;;;;;;;11.23;5.00;;;;;;;-0.35;100.00;101063.72;4988121;28;20031;-83
2023/12/04 02:56:59;;;;;;;11.77;4.80;;;;;;;-0.33;100.00;101054.38;4975729;28;20022;-84
2023/12/04 02:59:25;;;;;;;10.53;5.13;;;;;;;-0.33;100.00;101055.25;4989302;28;20030;-83
2023/12/04 03:01:50;;;;;;;12.73;5.20;;;;;;;-0.36;100.00;101044.09;4989656;28;20037;-83
2023/12/04 03:04:15;;;;;;;12.50;5.37;;;;;;;-0.34;100.00;101047.53;4990764;28;20590;-83
2023/12/04 03:06:41;;;;;;;12.00;5.67;;;;;;;-0.35;100.00;101045.81;4990277;28;20034;-83
2023/12/04 03:09:06;;;;;;;10.83;5.00;;;;;;;-0.37;100.00;101039.81;4972353;28;20030;-83
2023/12/04 03:11:31;;;;;;;10.67;4.97;;;;;;;-0.38;100.00;101032.97;4979769;28;20442;-83
2023/12/04 03:14:00;;;;;;;11.60;5.43;;;;;;;-0.38;100.00;101032.97;4986857;28;20026;-84
2023/12/04 03:16:25;;;;;;;12.00;6.03;;;;;;;-0.42;100.00;101032.03;4989001;28;20465;-83
2023/12/04 03:18:50;;;;;;;11.63;5.53;;;;;;;-0.44;100.00;101033.72;4972282;28;20029;-84
2023/12/04 03:21:16;;;;;;;9.47;4.90;;;;;;;-0.44;100.00;101022.59;4989242;28;20442;-83
2023/12/04 03:23:41;;;;;;;12.97;5.37;;;;;;;-0.46;100.00;101018.31;4992389;28;20041;-83
2023/12/04 03:26:07;;;;;;;10.80;4.80;;;;;;;-0.47;100.00;101023.41;4975155;28;20023;-83
2023/12/04 03:28:32;;;;;;;11.60;5.30;;;;;;;-0.48;100.00;101017.41;4989920;28;20037;-84
2023/12/04 03:30:57;;;;;;;11.03;5.77;;;;;;;-0.49;100.00;101013.13;4977353;28;20037;-83
2023/12/04 03:33:23;;;;;;;12.77;5.37;;;;;;;-0.48;100.00;101007.19;4988232;28;20030;-83
2023/12/04 03:35:48;;;;;;;12.90;5.90;;;;;;;-0.48;100.00;101004.63;4987764;28;20576;-83
2023/12/04 03:38:13;;;;;;;11.53;5.03;;;;;;;-0.50;100.00;101000.34;4982175;28;20026;-83
2023/12/04 03:40:39;;;;;;;12.03;5.63;;;;;;;-0.50;100.00;100993.50;4996050;28;20053;-83
2023/12/04 03:43:04;;;;;;;12.13;5.90;;;;;;;-0.52;100.00;100992.66;5009128;28;20109;-84
2023/12/04 03:45:29;;;;;;;10.20;5.13;;;;;;;-0.52;100.00;100987.53;5003976;28;20030;-83
2023/12/04 03:47:55;;;;;;;11.13;5.37;;;;;;;-0.53;100.00;100985.81;5006527;28;20037;-84
2023/12/04 03:50:20;;;;;;;11.70;5.23;;;;;;;-0.54;100.00;100984.06;5003228;28;21485;-83
2023/12/04 03:52:45;;;;;;;11.77;5.20;;;;;;;-0.55;100.00;100977.22;5004861;28;20022;-83
2023/12/04 03:55:11;;;;;;;11.30;5.87;;;;;;;-0.56;100.00;100972.94;4993512;28;20119;-83
2023/12/04 03:57:36;;;;;;;10.47;5.10;;;;;;;-0.59;100.00;100965.22;5012539;28;20049;-84
2023/12/04 04:00:01;;;;;;;11.53;5.20;;;;;;;-0.59;100.00;100965.22;5008275;28;20038;-83
2023/12/04 04:02:27;;;;;;;10.27;5.17;;;;;;;-0.58;100.00;100956.72;5005899;28;20037;-83
2023/12/04 04:04:53;;;;;;;9.80;5.07;;;;;;;-0.59;100.00;100960.09;5008772;28;20026;-83
2023/12/04 04:07:18;;;;;;;10.80;4.90;;;;;;;-0.60;100.00;100955.81;5006350;28;20127;-83
2023/12/04 04:09:44;;;;;;;9.63;4.93;;;;;;;-0.60;100.00;100957.53;5007829;28;20036;-83
2023/12/04 04:12:09;;;;;;;10.23;5.10;;;;;;;-0.62;100.00;100952.38;5004185;28;20068;-83
2023/12/04 04:14:34;;;;;;;9.87;4.60;;;;;;;-0.64;100.00;100946.34;5008780;28;20049;-83
2023/12/04 04:17:00;;;;;;;10.80;5.40;;;;;;;-0.64;100.00;100938.69;4987454;28;20018;-84
2023/12/04 04:19:25;;;;;;;10.37;4.93;;;;;;;-0.64;100.00;100944.69;5003497;28;20033;-83
2023/12/04 04:21:50;;;;;;;11.77;5.20;;;;;;;-0.64;100.00;100937.00;5005937;28;20026;-83
2023/12/04 04:24:16;;;;;;;9.77;5.00;;;;;;;-0.64;100.00;100931.91;5002100;28;20059;-84
2023/12/04 04:26:41;;;;;;;11.90;5.43;;;;;;;-0.62;100.00;100931.91;5009134;28;20026;-83
2023/12/04 04:29:06;;;;;;;10.87;5.13;;;;;;;-0.63;100.00;100927.63;5015006;28;20022;-84
2023/12/04 04:31:32;;;;;;;10.27;4.90;;;;;;;-0.63;99.98;100922.53;5006956;28;20026;-83
2023/12/04 04:33:57;;;;;;;10.97;5.20;;;;;;;-0.64;100.00;100925.91;4995969;28;20021;-84
2023/12/04 04:36:22;;;;;;;11.07;5.23;;;;;;;-0.64;100.00;100918.25;5008293;28;20026;-84
2023/12/04 04:38:48;;;;;;;11.43;5.13;;;;;;;-0.65;100.00;100916.53;5009644;28;20034;-83
2023/12/04 04:41:15;;;;;;;11.13;4.87;;;;;;;-0.65;100.00;100913.97;4996803;28;20047;-84
2023/12/04 04:43:40;;;;;;;11.47;5.40;;;;;;;-0.64;100.00;100920.81;4992395;28;20105;-84
2023/12/04 04:46:05;;;;;;;13.10;5.50;;;;;;;-0.65;100.00;100919.97;4993707;28;20488;-84
2023/12/04 04:48:31;;;;;;;10.50;5.10;;;;;;;-0.64;100.00;100910.59;4987415;28;20438;-83
2023/12/04 04:50:56;;;;;;;10.87;5.30;;;;;;;-0.64;99.88;100916.56;4980143;28;20456;-83
2023/12/04 04:53:22;;;;;;;11.47;5.57;;;;;;;-0.64;100.00;100902.91;4988475;28;20030;-84
2023/12/04 04:55:47;;;;;;;10.43;5.07;;;;;;;-0.63;100.00;100905.53;4990290;28;20047;-83
2023/12/04 04:58:12;;;;;;;10.63;5.30;;;;;;;-0.63;99.75;100902.97;4988550;28;20461;-83
2023/12/04 05:00:38;;;;;;;10.63;5.40;;;;;;;-0.64;100.00;100900.38;4985540;28;20053;-83
2023/12/04 05:03:03;;;;;;;11.87;5.50;;;;;;;-0.62;100.00;100907.25;4989916;28;20065;-83
2023/12/04 05:05:28;;;;;;;10.33;4.93;;;;;;;-0.62;100.00;100903.81;4991791;28;20109;-83
2023/12/04 05:07:54;;;;;;;11.43;4.97;;;;;;;-0.61;100.00;100897.88;4987229;28;20074;-83
2023/12/04 05:10:19;;;;;;;11.40;5.40;;;;;;;-0.59;100.00;100903.00;4987441;28;20026;-84
2023/12/04 05:12:44;;;;;;;11.53;5.30;;;;;;;-0.60;100.00;100899.59;4992652;28;20092;-83
2023/12/04 05:15:10;;;;;;;9.40;4.53;;;;;;;-0.59;99.71;100897.91;4987766;28;20050;-84
2023/12/04 05:17:35;;;;;;;10.27;4.87;;;;;;;-0.60;100.00;100897.06;4987840;28;20022;-84
2023/12/04 05:20:00;;;;;;;10.07;5.17;;;;;;;-0.59;99.35;100903.88;4983503;28;20030;-83
2023/12/04 05:22:26;;;;;;;11.77;5.37;;;;;;;-0.61;99.50;100895.31;4991818;28;20096;-83
2023/12/04 05:24:51;;;;;;;9.07;4.20;;;;;;;-0.58;99.46;100899.63;4971162;28;20108;-83
2023/12/04 05:27:16;;;;;;;11.13;4.73;;;;;;;-0.58;99.81;100891.97;4990415;28;20073;-83
2023/12/04 05:29:42;;;;;;;11.43;4.73;;;;;;;-0.57;99.14;100889.44;4996332;28;20184;-83
2023/12/04 05:32:07;;;;;;;9.10;4.47;;;;;;;-0.58;99.40;100887.72;4987831;28;20078;-84
2023/12/04 05:34:32;;;;;;;9.87;4.73;;;;;;;-0.59;99.19;100877.47;4971293;28;20018;-84
2023/12/04 05:36:58;;;;;;;10.60;4.73;;;;;;;-0.59;99.47;100880.00;4985119;28;20034;-83
2023/12/04 05:39:23;;;;;;;9.33;4.83;;;;;;;-0.59;99.58;100878.34;4987945;28;20045;-84
2023/12/04 05:41:48;;;;;;;10.67;4.90;;;;;;;-0.57;99.42;100871.56;5002006;28;20164;-83
2023/12/04 05:44:14;;;;;;;10.50;5.20;;;;;;;-0.56;98.74;100865.63;4988502;28;21712;-84
2023/12/04 05:46:39;;;;;;;10.53;4.60;;;;;;;-0.56;98.92;100857.09;5008153;28;20029;-83
2023/12/04 05:49:04;;;;;;;9.97;4.60;;;;;;;-0.56;99.11;100857.97;5006691;28;20112;-83
2023/12/04 05:51:30;;;;;;;9.13;5.00;;;;;;;-0.56;99.22;100857.09;5001423;28;20109;-84
2023/12/04 05:53:55;;;;;;;10.87;5.10;;;;;;;-0.57;98.70;100850.25;5009168;28;20481;-84
2023/12/04 05:56:21;;;;;;;8.53;4.57;;;;;;;-0.57;98.78;100857.91;5005476;28;20515;-84
2023/12/04 05:58:46;;;;;;;10.27;4.33;;;;;;;-0.58;98.62;100857.06;5012295;28;20049;-83
2023/12/04 06:01:11;;;;;;;11.17;4.47;;;;;;;-0.59;98.53;100863.00;5002877;28;20373;-84
2023/12/04 06:03:37;;;;;;;9.27;4.73;;;;;;;-0.56;98.83;100860.50;5004928;28;20530;-83
2023/12/04 06:06:02;;;;;;;8.57;4.27;;;;;;;-0.56;98.33;100857.97;4992318;28;20059;-84
2023/12/04 06:08:28;;;;;;;8.60;4.40;;;;;;;-0.57;98.26;100856.22;5007620;28;20767;-84
2023/12/04 06:10:53;;;;;;;9.37;4.60;;;;;;;-0.54;98.23;100846.09;5007771;28;20109;-84
2023/12/04 06:13:18;;;;;;;9.27;4.90;;;;;;;-0.54;98.23;100842.66;5008905;28;20499;-83
2023/12/04 06:15:44;;;;;;;8.53;4.27;;;;;;;-0.53;98.84;100842.69;5007204;28;20508;-84
2023/12/04 06:18:09;;;;;;;8.80;4.30;;;;;;;-0.53;98.75;100837.59;5001300;28;20050;-84
2023/12/04 06:20:34;;;;;;;8.40;4.03;;;;;;;-0.53;98.01;100831.59;5008058;28;20491;-83
2023/12/04 06:23:00;;;;;;;8.50;4.40;;;;;;;-0.53;98.39;100832.47;5008325;28;20034;-84
2023/12/04 06:25:26;;;;;;;8.53;4.20;;;;;;;-0.55;98.24;100823.91;5010458;28;21588;-84
2023/12/04 06:27:51;;;;;;;8.47;4.30;;;;;;;-0.54;97.96;100830.75;5005983;28;20036;-83
2023/12/04 06:30:17;;;;;;;8.17;4.10;;;;;;;-0.54;98.01;100823.09;5005181;28;20433;-84
2023/12/04 06:32:43;;;;;;;8.93;4.13;;;;;;;-0.51;97.76;100820.56;5006149;28;20044;-84
2023/12/04 06:35:10;;;;;;;7.93;3.80;;;;;;;-0.51;97.88;100812.88;5011503;28;20460;-84
2023/12/04 06:37:38;;;;;;;7.63;4.20;;;;;;;-0.49;97.58;100807.84;5010200;28;20481;-84
2023/12/04 06:40:04;;;;;;;8.43;4.10;;;;;;;-0.50;97.57;100796.72;5011209;28;20021;-83
2023/12/04 06:42:29;;;;;;;7.70;4.13;;;;;;;-0.51;97.58;100779.66;5005275;28;20084;-84
2023/12/04 06:44:55;;;;;;;8.20;4.10;;;;;;;-0.52;97.42;100787.31;5011024;28;20026;-84
2023/12/04 06:47:23;;;;;;;7.83;3.80;;;;;;;-0.53;97.04;100786.47;5014816;28;20033;-84
2023/12/04 06:49:48;;;;;;;7.30;3.87;;;;;;;-0.53;97.11;100780.47;5011990;28;20052;-84
2023/12/04 06:52:13;;;;;;;7.83;4.03;;;;;;;-0.57;96.65;100774.47;5007348;28;20582;-83
2023/12/04 06:54:39;;;;;;;9.83;4.33;;;;;;;-0.57;97.11;100771.91;4989976;28;20026;-84
2023/12/04 06:57:04;;;;;;;9.27;4.53;;;;;;;-0.58;96.87;100762.53;5020481;28;20030;-84
2023/12/04 06:59:29;;;;;;;9.53;4.33;;;;;;;-0.58;96.62;100767.63;5013250;28;20101;-84
2023/12/04 07:01:55;;;;;;;9.23;4.50;;;;;;;-0.56;96.93;100765.97;5006812;28;20033;-83
2023/12/04 07:04:21;;;;;;;8.23;4.20;;;;;;;-0.57;96.70;100751.47;5007574;28;20100;-84
2023/12/04 07:06:48;;;;;;;9.57;4.30;;;;;;;-0.58;96.05;100749.75;4994490;28;20354;-84
2023/12/04 07:09:13;;;;;;;7.30;4.00;;;;;;;-0.60;96.25;100748.84;5010549;28;20033;-84
2023/12/04 07:11:39;;;;;;;9.60;4.23;;;;;;;-0.61;95.90;100734.34;5007466;28;20018;-84
2023/12/04 07:14:04;;;;;;;8.30;4.10;;;;;;;-0.62;96.30;100727.50;4999226;28;20041;-83
2023/12/04 07:16:30;;;;;;;7.10;3.77;;;;;;;-0.64;96.21;100736.84;4992298;28;20028;-84
2023/12/04 07:18:55;;;;;;;7.13;3.70;;;;;;;-0.65;96.02;100756.44;5003696;28;20034;-84
2023/12/04 07:21:21;;;;;;;7.63;3.57;;;;;;;-0.64;96.30;100760.72;5011884;28;20030;-84
2023/12/04 07:23:46;;;;;;;8.57;4.07;;;;;;;-0.60;96.47;100760.78;4997642;28;20037;-84
2023/12/04 07:26:12;;;;;;;6.90;3.77;;;;;;;-0.58;95.80;100762.53;5003653;28;20487;-84
2023/12/04 07:28:38;;;;;;;8.43;4.30;;;;;;;-0.55;96.58;100761.72;5007294;28;20025;-84
2023/12/04 07:31:03;;;;;;;7.20;4.10;;;;;;;-0.54;95.93;100763.44;5011790;28;20039;-83
2023/12/04 07:33:29;;;;;;;7.63;3.77;;;;;;;-0.53;95.82;100760.91;5007045;28;20021;-84
2023/12/04 07:35:54;;;;;;;8.10;3.90;;;;;;;-0.52;96.40;100761.75;5003322;28;20787;-84
2023/12/04 07:38:20;;;;;;;6.97;3.37;;;;;;;-0.50;95.90;100771.16;5008964;28;20025;-84
2023/12/04 07:40:45;;;;;;;8.30;3.87;;;;;;;-0.50;95.72;100758.41;4998717;28;20038;-84
2023/12/04 07:43:11;;;;;;;9.90;3.73;;;;;;;-0.48;95.88;100761.84;4963767;28;20038;-84
2023/12/04 07:45:37;;;;;;;7.77;4.10;;;;;;;-0.48;95.47;100754.19;4992444;28;20062;-84
2023/12/04 07:48:05;;;;;;;6.33;3.30;;;;;;;-0.46;95.24;100756.78;4992115;28;20070;-85
2023/12/04 07:50:30;;;;;;;6.97;3.67;;;;;;;-0.44;95.21;100754.25;4994080;28;20024;-84
2023/12/04 07:52:55;;;;;;;6.30;3.60;;;;;;;-0.44;94.65;100751.69;4992973;28;20493;-84
2023/12/04 07:55:21;;;;;;;7.07;3.70;;;;;;;-0.42;95.09;100757.69;4993150;28;20017;-84
2023/12/04 07:57:47;;;;;;;6.97;3.80;;;;;;;-0.41;94.83;100754.31;4995151;28;20030;-84
2023/12/04 08:00:14;;;;;;;6.53;3.40;;;;;;;-0.39;94.52;100753.47;4995847;28;20027;-84
2023/12/04 08:02:39;;;;;;;7.03;3.60;;;;;;;-0.37;94.23;100756.09;4993105;28;20049;-84
2023/12/04 08:05:05;;;;;;;7.27;3.27;;;;;;;-0.36;94.64;100753.53;4995264;28;20037;-84
2023/12/04 08:07:30;;;;;;;7.13;3.87;;;;;;;-0.34;94.09;100754.44;4993627;28;20105;-84
2023/12/04 08:09:55;;;;;;;7.57;3.80;;;;;;;-0.34;94.05;100751.00;4997716;28;20389;-84
2023/12/04 08:12:21;;;;;;;6.23;3.73;;;;;;;-0.35;93.63;100739.94;4977221;28;20465;-84
2023/12/04 08:14:46;;;;;;;6.67;3.77;;;;;;;-0.33;93.53;100745.94;4993635;28;20486;-84
2023/12/04 08:17:12;;;;;;;6.90;3.67;;;;;;;-0.32;94.07;100745.09;4994136;28;20026;-84
2023/12/04 08:19:37;;;;;;;6.27;3.30;;;;;;;-0.29;94.21;100734.06;4974248;28;20064;-84
2023/12/04 08:22:03;;;;;;;6.83;3.30;;;;;;;-0.27;93.51;100732.38;4997909;28;20363;-84
2023/12/04 08:24:29;;;;;;;6.43;3.40;;;;;;;-0.25;93.57;100728.16;4993593;28;20051;-84
2023/12/04 08:26:57;;;;;;;6.27;3.50;;;;;;;-0.25;92.88;100735.84;4992327;28;20448;-84
2023/12/04 08:29:22;;;;;;;7.63;3.83;;;;;;;-0.23;93.21;100728.19;4996660;28;20045;-84
2023/12/04 08:31:47;;;;;;;5.50;3.07;;;;;;;-0.24;92.61;100729.91;4995984;28;20053;-84
2023/12/04 08:34:13;;;;;;;6.37;3.30;;;;;;;-0.22;93.14;100723.13;4974971;28;20073;-84
2023/12/04 08:36:38;;;;;;;6.50;3.27;;;;;;;-0.24;92.86;100724.78;4975324;28;20035;-84
2023/12/04 08:39:04;;;;;;;7.00;3.30;;;;;;;-0.22;93.25;100724.78;4993376;28;20029;-84
2023/12/04 08:41:29;;;;;;;6.13;3.37;;;;;;;-0.21;92.78;100716.28;4982152;28;20092;-84
2023/12/04 08:43:55;;;;;;;7.23;3.70;;;;;;;-0.23;92.47;100713.72;4992102;28;20034;-84
2023/12/04 08:46:20;;;;;;;7.40;3.70;;;;;;;-0.21;92.79;100706.94;4992853;28;20023;-84
2023/12/04 08:48:46;;;;;;;7.27;3.80;;;;;;;-0.18;92.85;100708.66;4999635;28;20083;-84
2023/12/04 08:51:18;;;;;;;5.40;3.33;;;;;;;-0.16;92.87;100702.75;4992714;28;20481;-84
2023/12/04 08:53:43;;;;;;;7.47;4.10;;;;;;;-0.16;92.07;100695.06;4997522;28;20033;-84
2023/12/04 08:56:09;;;;;;;6.83;3.80;;;;;;;-0.14;92.49;100695.09;4996873;28;20018;-84
2023/12/04 08:58:35;;;;;;;6.33;3.63;;;;;;;-0.13;92.29;100693.41;4993281;28;20507;-84
2023/12/04 09:01:00;;;;;;;7.90;4.10;;;;;;;-0.13;92.30;100683.16;4972974;28;21575;-84
2023/12/04 09:03:25;;;;;;;6.97;4.03;;;;;;;-0.12;92.10;100677.22;4991939;28;20539;-84
2023/12/04 09:05:51;;;;;;;8.27;4.30;;;;;;;-0.12;91.66;100674.66;4991001;28;20110;-84
2023/12/04 09:08:19;;;;;;;7.90;4.07;;;;;;;-0.11;91.80;100676.38;4989452;28;20050;-84
2023/12/04 09:10:47;;;;;;;8.60;3.90;;;;;;;-0.08;92.51;100671.31;4991338;28;20034;-84
2023/12/04 09:13:12;;;;;;;7.03;4.00;;;;;;;-0.05;92.24;100673.94;4989723;28;20044;-84
2023/12/04 09:15:38;;;;;;;9.03;4.63;;;;;;;-0.05;91.71;100676.50;4987486;28;20093;-84
2023/12/04 09:18:03;;;;;;;7.60;4.07;;;;;;;-0.04;91.44;100679.06;4986472;28;20471;-84
2023/12/04 09:20:29;;;;;;;7.80;4.07;;;;;;;-0.03;91.52;100670.56;4990660;28;20023;-84
2023/12/04 09:22:54;;;;;;;7.63;4.03;;;;;;;-0.01;92.09;100665.47;4989578;28;20034;-84
2023/12/04 09:25:19;;;;;;;7.53;4.00;;;;;;;0.03;91.87;100674.06;4987121;28;20033;-85
2023/12/04 09:27:46;;;;;;;9.40;4.30;;;;;;;0.03;92.03;100669.78;4988334;28;20053;-86
2023/12/04 09:30:11;;;;;;;9.20;4.53;;;;;;;0.05;91.72;100668.09;4988516;28;20022;-86
2023/12/04 09:32:37;;;;;;;8.80;4.23;;;;;;;0.05;91.10;100668.09;4978637;28;20507;-87
2023/12/04 09:35:02;;;;;;;7.80;4.40;;;;;;;0.06;91.31;100664.72;4966664;28;20102;-87
2023/12/04 09:37:27;;;;;;;8.23;4.63;;;;;;;0.08;91.31;100668.16;4985734;28;20065;-85
2023/12/04 09:39:53;;;;;;;9.70;4.37;;;;;;;0.12;91.71;100663.94;4988783;28;20436;-85
2023/12/04 09:42:19;;;;;;;9.97;4.67;;;;;;;0.12;91.49;100662.25;5005117;28;20057;-86
2023/12/04 09:44:47;;;;;;;8.53;4.67;;;;;;;0.16;92.11;100660.59;5009412;28;20030;-87
2023/12/04 09:47:14;;;;;;;8.70;4.50;;;;;;;0.16;91.69;100662.31;4998947;28;20071;-87
2023/12/04 09:49:40;;;;;;;8.97;5.07;;;;;;;0.17;91.95;100662.31;5010486;28;20076;-88
2023/12/04 09:52:06;;;;;;;8.23;4.50;;;;;;;0.19;92.00;100654.66;5009518;28;20033;-87
2023/12/04 09:54:34;;;;;;;8.67;4.30;;;;;;;0.19;91.83;100649.53;5009437;28;20084;-88
2023/12/04 09:56:59;;;;;;;9.63;5.03;;;;;;;0.22;92.20;100654.69;4997120;28;20037;-89
2023/12/04 09:59:26;;;;;;;8.67;4.60;;;;;;;0.23;91.83;100657.28;5018212;28;20065;-86
2023/12/04 10:01:52;;;;;;;9.23;4.97;;;;;;;0.26;91.47;100659.03;5008233;28;20025;-86
2023/12/04 10:04:18;;;;;;;8.13;4.50;;;;;;;0.26;91.59;100646.22;5006095;28;20037;-86
2023/12/04 10:06:45;;;;;;;8.67;4.93;;;;;;;0.31;92.23;100649.72;5009616;28;20029;-86
2023/12/04 10:09:13;;;;;;;9.83;5.40;;;;;;;0.33;91.72;100647.16;5014170;28;20037;-86
2023/12/04 10:11:41;;;;;;;10.13;5.57;;;;;;;0.34;91.63;100647.22;4988304;28;20029;-85
2023/12/04 10:14:16;;;;;;;7.83;4.83;;;;;;;0.35;91.93;100641.22;5015859;28;20556;-85
2023/12/04 10:16:42;;;;;;;10.13;5.20;;;;;;;0.38;91.42;100641.25;5011033;28;20393;-85
2023/12/04 10:19:27;;;;;;;10.23;5.33;;;;;;;0.40;91.64;100639.59;5011228;28;20487;-85
2023/12/04 10:21:55;;;;;;;9.63;5.10;;;;;;;0.39;91.20;100635.31;5004872;28;20038;-86
2023/12/04 10:24:38;;;;;;;10.27;5.50;;;;;;;0.41;91.05;100623.41;5006201;28;20144;-85
2023/12/04 10:27:08;;;;;;;8.37;4.93;;;;;;;0.42;91.35;100625.13;5010967;28;20028;-85
2023/12/04 10:29:45;;;;;;;10.50;5.40;;;;;;;0.44;91.34;100615.75;5001243;28;20048;-85
2023/12/04 10:32:11;;;;;;;11.03;5.50;;;;;;;0.51;91.50;100615.84;5011510;28;20036;-86
2023/12/04 10:34:36;;;;;;;10.10;5.20;;;;;;;0.53;90.73;100619.25;5010415;28;20017;-86
2023/12/04 10:37:04;;;;;;;10.57;5.10;;;;;;;0.55;90.54;100610.78;5006769;28;20469;-86
2023/12/04 10:39:30;;;;;;;9.07;5.20;;;;;;;0.58;91.03;100602.25;5010038;28;20061;-86
2023/12/04 10:42:01;;;;;;;11.23;5.63;;;;;;;0.64;91.37;100598.91;5003835;28;20129;-85
2023/12/04 10:44:27;;;;;;;12.05;5.60;;;;;;;0.66;90.64;100590.41;4988717;28;20056;-85
2023/12/04 10:46:54;;;;;;;10.03;5.13;;;;;;;0.66;90.62;100585.31;5006326;28;20025;-85
2023/12/04 10:49:20;;;;;;;9.37;5.33;;;;;;;0.68;90.10;100575.06;5007614;28;20030;-85
2023/12/04 10:51:46;;;;;;;9.17;5.30;;;;;;;0.70;90.28;100579.34;5006443;28;20548;-86
2023/12/04 10:54:12;;;;;;;9.23;5.40;;;;;;;0.71;90.35;100564.84;5007131;28;20030;-85
2023/12/04 10:56:40;;;;;;;11.17;6.00;;;;;;;0.73;90.47;100573.41;4992485;28;20080;-85
2023/12/04 10:59:15;;;;;;;9.60;5.43;;;;;;;0.75;90.46;100569.16;4992924;28;20057;-86
2023/12/04 11:01:44;;;;;;;9.63;5.53;;;;;;;0.77;90.20;100562.34;4995656;28;20119;-86
2023/12/04 11:04:17;;;;;;;10.97;5.90;;;;;;;0.79;90.23;100552.13;5003329;28;20022;-85
2023/12/04 11:06:48;;;;;;;11.20;5.50;;;;;;;0.80;89.90;100548.72;5003764;28;20085;-86
2023/12/04 11:09:13;;;;;;;9.83;5.67;;;;;;;0.82;90.47;100544.47;5003290;28;20041;-85
2023/12/04 11:11:44;;;;;;;10.20;5.57;;;;;;;0.85;90.58;100536.84;5005575;28;20026;-85
2023/12/04 11:14:15;;;;;;;9.93;5.40;;;;;;;0.87;90.14;100537.69;5004453;28;20025;-85